createdAt,value
2018-12-27T00:00:22.244Z,10.93
2018-12-27T00:05:41.995Z,12.87
2018-12-27T00:10:59.579Z,13.70
2018-12-27T00:16:17.616Z,12.70
2018-12-27T00:21:36.128Z,13.00
2018-12-27T00:26:53.954Z,14.80
2018-12-27T00:32:12.430Z,14.20
2018-12-27T00:37:30.565Z,15.07
2018-12-27T00:42:47.934Z,13.67
2018-12-27T00:48:05.739Z,14.10
2018-12-27T00:53:23.606Z,14.40
2018-12-27T00:58:41.924Z,16.40
2018-12-27T01:03:59.829Z,13.20
2018-12-27T01:09:17.893Z,13.50
2018-12-27T01:14:35.705Z,13.73
2018-12-27T01:19:54.062Z,13.80
2018-12-27T01:25:12.047Z,12.60
2018-12-27T01:30:29.977Z,11.70
2018-12-27T01:35:47.506Z,12.70
2018-12-27T01:41:04.832Z,13.10
2018-12-27T01:46:22.620Z,13.13
2018-12-27T01:51:40.832Z,12.83
2018-12-27T01:56:58.927Z,11.47
2018-12-27T02:02:17.065Z,12.60
2018-12-27T02:07:35.046Z,12.97
2018-12-27T02:12:53.233Z,12.40
2018-12-27T02:18:12.568Z,11.80
2018-12-27T02:23:30.361Z,13.00
2018-12-27T02:28:48.737Z,12.50
2018-12-27T02:34:06.722Z,12.23
2018-12-27T02:39:24.366Z,12.47
2018-12-27T02:44:42.604Z,11.10
2018-12-27T02:50:00.041Z,12.73
2018-12-27T02:55:18.397Z,13.90
2018-12-27T03:00:36.702Z,12.40
2018-12-27T03:05:55.096Z,13.07
2018-12-27T03:11:13.109Z,10.40
2018-12-27T03:16:31.333Z,10.03
2018-12-27T03:21:49.733Z,11.10
2018-12-27T03:27:07.927Z,10.03
2018-12-27T03:32:25.629Z,9.10
2018-12-27T03:37:43.689Z,9.70
2018-12-27T03:43:01.760Z,9.30
2018-12-27T03:48:20.343Z,9.63
2018-12-27T03:53:38.359Z,9.27
2018-12-27T03:58:56.522Z,7.33
2018-12-27T04:04:15.223Z,7.53
2018-12-27T04:09:33.138Z,8.20
2018-12-27T04:14:50.501Z,8.70
2018-12-27T04:20:08.329Z,8.60
2018-12-27T04:25:26.016Z,7.73
2018-12-27T04:30:43.566Z,8.07
2018-12-27T04:36:01.557Z,7.43
2018-12-27T04:41:19.977Z,8.53
2018-12-27T04:46:37.427Z,8.60
2018-12-27T04:51:55.149Z,8.30
2018-12-27T04:57:13.119Z,7.03
2018-12-27T05:02:30.411Z,7.17
2018-12-27T05:07:48.385Z,6.60
2018-12-27T05:13:06.085Z,6.90
2018-12-27T05:18:24.266Z,6.70
2018-12-27T05:23:42.638Z,6.70
2018-12-27T05:29:00.995Z,4.63
2018-12-27T05:34:26.004Z,1.80
2018-12-27T05:39:37.973Z,0.50
2018-12-27T05:44:56.038Z,0.30
2018-12-27T05:50:13.325Z,0.30
2018-12-27T05:55:34.416Z,0.30
2018-12-27T06:00:50.671Z,0.40
2018-12-27T06:06:09.147Z,0.37
2018-12-27T06:11:27.293Z,0.20
2018-12-27T06:16:45.719Z,0.30
2018-12-27T06:22:03.901Z,0.40
2018-12-27T06:27:22.163Z,2.60
2018-12-27T06:32:40.232Z,4.23
2018-12-27T06:37:58.223Z,4.60
2018-12-27T06:43:15.760Z,3.57
2018-12-27T06:48:34.026Z,2.10
2018-12-27T06:53:52.361Z,2.07
2018-12-27T06:59:10.673Z,2.37
2018-12-27T07:04:28.773Z,2.33
2018-12-27T07:09:46.295Z,5.90
2018-12-27T07:15:04.327Z,11.47
2018-12-27T07:20:22.758Z,13.23
2018-12-27T07:25:40.264Z,8.97
2018-12-27T07:30:58.653Z,18.40
2018-12-27T07:36:16.978Z,23.23
2018-12-27T07:41:35.369Z,20.57
2018-12-27T07:46:53.959Z,21.83
2018-12-27T07:52:12.518Z,21.27
2018-12-27T07:57:30.315Z,22.53
2018-12-27T08:02:48.553Z,17.37
2018-12-27T08:08:06.071Z,12.57
2018-12-27T08:13:24.337Z,16.10
2018-12-27T08:18:42.402Z,29.97
2018-12-27T08:23:59.994Z,35.33
2018-12-27T08:29:17.407Z,27.37
2018-12-27T08:34:35.155Z,26.73
2018-12-27T08:39:53.193Z,45.27
2018-12-27T08:45:10.993Z,28.57
2018-12-27T08:50:28.678Z,20.30
2018-12-27T08:55:46.742Z,18.30
2018-12-27T09:01:04.550Z,12.40
2018-12-27T09:06:22.988Z,10.20
2018-12-27T09:11:41.345Z,10.27
2018-12-27T09:16:59.568Z,8.13
2018-12-27T09:22:17.843Z,12.10
2018-12-27T09:27:36.288Z,9.40
2018-12-27T09:32:54.215Z,11.27
2018-12-27T09:38:12.335Z,10.90
2018-12-27T09:43:30.724Z,7.43
2018-12-27T09:48:49.271Z,4.47
2018-12-27T09:54:06.982Z,4.03
2018-12-27T09:59:25.248Z,4.83
2018-12-27T10:04:43.775Z,3.23
2018-12-27T10:10:01.390Z,2.50
2018-12-27T10:15:19.328Z,2.13
2018-12-27T10:20:37.061Z,1.50
2018-12-27T10:25:55.522Z,0.60
2018-12-27T10:31:13.605Z,0.80
2018-12-27T10:36:32.059Z,0.60
2018-12-27T10:41:50.075Z,0.50
2018-12-27T10:47:09.404Z,0.60
2018-12-27T10:52:27.655Z,0.33
2018-12-27T10:57:45.289Z,0.40
2018-12-27T11:03:02.850Z,0.30
2018-12-27T11:08:23.790Z,0.57
2018-12-27T11:13:41.185Z,0.37
2018-12-27T11:18:59.218Z,0.30
2018-12-27T11:24:18.128Z,0.30
2018-12-27T11:29:35.614Z,0.50
2018-12-27T11:34:53.120Z,0.30
2018-12-27T11:40:11.605Z,0.30
2018-12-27T11:45:29.369Z,0.30
2018-12-27T11:50:47.432Z,0.40
2018-12-27T11:56:05.620Z,0.30
2018-12-27T12:01:23.213Z,0.33
2018-12-27T12:06:41.110Z,0.40
2018-12-27T12:11:58.767Z,0.50
2018-12-27T12:17:16.955Z,0.30
2018-12-27T12:22:34.449Z,0.40
2018-12-27T12:27:52.011Z,0.40
2018-12-27T12:33:09.787Z,0.60
2018-12-27T12:38:27.476Z,0.70
2018-12-27T12:43:45.858Z,0.40
2018-12-27T12:49:03.812Z,0.70
2018-12-27T12:54:21.771Z,0.47
2018-12-27T12:59:39.426Z,0.50
2018-12-27T13:04:57.845Z,0.30
2018-12-27T13:10:15.711Z,0.73
2018-12-27T13:15:33.873Z,0.60
2018-12-27T13:20:51.386Z,1.10
2018-12-27T13:26:09.602Z,0.50
2018-12-27T13:31:28.229Z,1.23
2018-12-27T13:36:46.528Z,0.40
2018-12-27T13:42:04.645Z,0.60
2018-12-27T13:47:22.942Z,0.70
2018-12-27T13:52:40.784Z,1.37
2018-12-27T13:57:58.315Z,1.10
2018-12-27T14:03:16.270Z,0.63
2018-12-27T14:08:34.522Z,0.70
2018-12-27T14:13:52.100Z,2.20
2018-12-27T14:19:09.985Z,1.90
2018-12-27T14:24:27.686Z,4.67
2018-12-27T14:29:45.916Z,4.00
2018-12-27T14:35:03.770Z,1.60
2018-12-27T14:40:21.694Z,2.17
2018-12-27T14:45:39.760Z,3.70
2018-12-27T14:50:57.832Z,3.43
2018-12-27T14:56:16.019Z,2.33
2018-12-27T15:01:34.830Z,1.40
2018-12-27T15:06:53.270Z,1.60
2018-12-27T15:12:11.430Z,1.00
2018-12-27T15:17:29.090Z,2.67
2018-12-27T15:22:46.949Z,2.00
2018-12-27T15:28:05.228Z,11.77
2018-12-27T15:33:22.840Z,6.63
2018-12-27T15:38:41.117Z,21.53
2018-12-27T15:43:59.194Z,8.87
2018-12-27T15:49:17.454Z,5.10
2018-12-27T15:54:35.581Z,5.60
2018-12-27T15:59:53.243Z,6.67
2018-12-27T16:05:12.794Z,5.50
2018-12-27T16:10:30.430Z,5.53
2018-12-27T16:15:47.902Z,7.33
2018-12-27T16:21:05.357Z,10.83
2018-12-27T16:26:23.188Z,10.10
2018-12-27T16:31:41.399Z,8.93
2018-12-27T16:36:59.543Z,6.00
2018-12-27T16:42:21.919Z,5.83
2018-12-27T16:47:39.135Z,4.97
2018-12-27T16:52:56.890Z,6.37
2018-12-27T16:58:15.177Z,4.23
2018-12-27T17:03:33.772Z,5.60
2018-12-27T17:08:53.658Z,4.70
2018-12-27T17:14:12.028Z,5.00
2018-12-27T17:19:30.793Z,2.83
2018-12-27T17:24:48.610Z,7.60
2018-12-27T17:30:07.228Z,8.63
2018-12-27T17:35:25.234Z,6.60
2018-12-27T17:40:42.755Z,7.57
2018-12-27T17:46:01.862Z,19.50
2018-12-27T17:51:19.751Z,32.47
2018-12-27T17:56:38.424Z,14.47
2018-12-27T18:01:56.421Z,15.73
2018-12-27T18:07:14.060Z,14.30
2018-12-27T18:12:32.274Z,10.33
2018-12-27T18:17:50.261Z,10.00
2018-12-27T18:23:08.538Z,13.23
2018-12-27T18:28:27.115Z,14.73
2018-12-27T18:33:45.308Z,11.23
2018-12-27T18:39:04.134Z,13.40
2018-12-27T18:44:22.529Z,7.20
2018-12-27T18:49:40.722Z,13.37
2018-12-27T18:54:59.124Z,37.50
2018-12-27T19:00:17.084Z,30.30
2018-12-27T19:05:35.379Z,28.30
2018-12-27T19:10:53.123Z,24.13
2018-12-27T19:16:11.018Z,27.00
2018-12-27T19:21:29.409Z,79.80
2018-12-27T19:26:47.422Z,46.47
2018-12-27T19:32:05.814Z,64.43
2018-12-27T19:37:23.792Z,37.53
2018-12-27T19:42:41.734Z,33.50
2018-12-27T19:47:59.591Z,33.50
2018-12-27T19:53:18.084Z,26.17
2018-12-27T19:58:35.818Z,27.33
2018-12-27T20:03:53.846Z,27.60
2018-12-27T20:09:12.090Z,24.50
2018-12-27T20:14:31.340Z,24.37
2018-12-27T20:19:49.632Z,26.57
2018-12-27T20:25:10.837Z,19.60
2018-12-27T20:30:29.106Z,23.80
2018-12-27T20:35:46.930Z,20.30
2018-12-27T20:41:04.562Z,21.60
2018-12-27T20:46:25.571Z,24.70
2018-12-27T20:51:43.506Z,18.57
2018-12-27T20:57:01.697Z,20.27
2018-12-27T21:02:20.425Z,17.40
2018-12-27T21:07:39.971Z,26.10
2018-12-27T21:12:59.038Z,28.47
2018-12-27T21:18:17.171Z,26.97
2018-12-27T21:23:35.616Z,19.07
2018-12-27T21:28:53.374Z,15.47
2018-12-27T21:34:11.697Z,13.60
2018-12-27T21:39:30.217Z,11.27
2018-12-27T21:44:48.390Z,11.73
2018-12-27T21:50:05.940Z,9.90
2018-12-27T21:55:23.626Z,11.33
2018-12-27T22:00:41.454Z,7.20
2018-12-27T22:05:59.720Z,7.40
2018-12-27T22:11:17.656Z,7.67
2018-12-27T22:16:35.690Z,10.13
2018-12-27T22:21:53.989Z,11.37
2018-12-27T22:27:12.660Z,4.53
2018-12-27T22:32:31.600Z,9.63
2018-12-27T22:37:49.422Z,11.30
2018-12-27T22:43:11.024Z,9.57
2018-12-27T22:48:29.482Z,9.57
2018-12-27T22:53:51.643Z,9.97
2018-12-27T22:59:29.318Z,13.30
2018-12-27T23:04:47.083Z,13.47
2018-12-27T23:10:04.869Z,13.90
2018-12-27T23:15:22.374Z,12.90
2018-12-27T23:20:40.635Z,12.40
2018-12-27T23:25:58.995Z,11.50
2018-12-27T23:31:17.175Z,10.53
2018-12-27T23:36:35.325Z,14.10
2018-12-27T23:41:53.444Z,17.30
2018-12-27T23:47:11.038Z,9.37
2018-12-27T23:52:29.004Z,8.07
2018-12-27T23:57:47.471Z,13.70
